Time;durP1;ratioP1;P1;durP2;ratioP2;P2;SDS_P1;SDS_P2;PMS_P1;PMS_P2;Temp;Humidity;BMP_temperature;BMP_pressure;BME280_temperature;BME280_humidity;BME280_pressure;Samples;Min_cycle;Max_cycle;Signal;HPM_P1;HPM_P2
2022/08/05 00:01:20;;;;;;;7.60;3.10;;;19.40;99.90;;;;;;5032035;28;20037;-75
2022/08/05 00:03:47;;;;;;;4.68;2.55;;;19.30;99.90;;;;;;5046170;28;20560;-76
2022/08/05 00:06:13;;;;;;;6.82;2.63;;;19.30;99.90;;;;;;5030320;28;20049;-76
2022/08/05 00:08:40;;;;;;;5.47;2.95;;;19.30;99.90;;;;;;5026939;28;20045;-76
2022/08/05 00:11:09;;;;;;;5.72;2.58;;;19.30;99.90;;;;;;5013101;28;20041;-76
2022/08/05 00:13:37;;;;;;;5.57;2.60;;;19.40;99.90;;;;;;5010252;28;20033;-76
2022/08/05 00:16:04;;;;;;;7.82;3.00;;;19.40;99.90;;;;;;5021648;28;20045;-76
2022/08/05 00:18:30;;;;;;;6.28;2.50;;;19.40;99.90;;;;;;5024390;28;20064;-77
2022/08/05 00:20:57;;;;;;;5.75;3.40;;;19.40;99.90;;;;;;5029039;28;20073;-76
2022/08/05 00:23:23;;;;;;;4.90;2.58;;;19.30;99.90;;;;;;5029302;28;20052;-76
2022/08/05 00:25:49;;;;;;;5.25;2.80;;;19.40;99.90;;;;;;5024422;28;20558;-76
2022/08/05 00:28:15;;;;;;;7.18;2.60;;;19.50;99.90;;;;;;4985894;28;20116;-76
2022/08/05 00:30:41;;;;;;;4.95;2.28;;;19.50;99.90;;;;;;5020795;28;20052;-76
2022/08/05 00:33:07;;;;;;;5.95;2.95;;;19.50;99.90;;;;;;5029373;28;20046;-76
2022/08/05 00:35:32;;;;;;;6.05;2.95;;;19.50;99.90;;;;;;5021611;28;20378;-77
2022/08/05 00:37:58;;;;;;;5.47;2.10;;;19.50;99.90;;;;;;5009573;28;20076;-76
2022/08/05 00:40:25;;;;;;;6.47;2.85;;;19.40;99.90;;;;;;4996027;28;20140;-76
2022/08/05 00:42:52;;;;;;;5.32;2.13;;;19.50;99.90;;;;;;5022735;28;20117;-76
2022/08/05 00:45:18;;;;;;;5.63;2.70;;;19.40;99.90;;;;;;5042043;28;20045;-76
2022/08/05 00:47:43;;;;;;;5.60;2.58;;;19.50;99.90;;;;;;5029472;28;20494;-76
2022/08/05 00:50:09;;;;;;;7.63;2.40;;;19.50;99.90;;;;;;5014350;28;20048;-76
2022/08/05 00:52:35;;;;;;;5.68;2.13;;;19.50;99.90;;;;;;5012136;28;20073;-76
2022/08/05 00:55:02;;;;;;;6.75;2.58;;;19.50;99.90;;;;;;5009489;28;20049;-76
2022/08/05 00:57:28;;;;;;;5.70;2.60;;;19.50;99.90;;;;;;5029300;28;20553;-76
2022/08/05 00:59:53;;;;;;;5.53;2.25;;;19.50;99.90;;;;;;5014332;28;20149;-76
2022/08/05 01:02:19;;;;;;;6.93;2.63;;;19.50;99.90;;;;;;5000087;28;20040;-76
2022/08/05 01:04:45;;;;;;;5.53;2.47;;;19.50;99.90;;;;;;5013618;28;20069;-76
2022/08/05 01:07:10;;;;;;;8.23;2.97;;;19.50;99.90;;;;;;4986250;28;20041;-76
2022/08/05 01:09:36;;;;;;;7.60;2.80;;;19.50;99.90;;;;;;5032459;28;20051;-77
2022/08/05 01:12:08;;;;;;;6.00;2.45;;;19.40;99.90;;;;;;5034615;28;20735;-76
2022/08/05 01:14:47;;;;;;;7.22;2.60;;;19.30;99.90;;;;;;5028675;28;21380;-76
2022/08/05 01:17:20;;;;;;;5.85;2.75;;;19.30;99.90;;;;;;5029084;28;20041;-76
2022/08/05 01:20:10;;;;;;;5.43;2.60;;;19.30;99.90;;;;;;5017741;28;20053;-76
2022/08/05 01:23:01;;;;;;;6.75;2.80;;;19.20;99.90;;;;;;5028546;28;20033;-76
2022/08/05 01:25:52;;;;;;;5.38;2.50;;;19.20;99.90;;;;;;5034536;28;20084;-76
2022/08/05 01:28:32;;;;;;;4.75;2.67;;;19.10;99.90;;;;;;5012707;28;20069;-76
2022/08/05 01:31:06;;;;;;;4.90;2.30;;;19.10;99.90;;;;;;5026341;28;20050;-76
2022/08/05 01:33:36;;;;;;;6.43;2.40;;;19.20;99.90;;;;;;5034787;28;20131;-76
2022/08/05 01:36:08;;;;;;;5.63;2.85;;;19.20;99.90;;;;;;5031984;28;20046;-76
2022/08/05 01:38:36;;;;;;;6.18;2.38;;;19.20;99.90;;;;;;5034665;28;20429;-76
2022/08/05 01:41:03;;;;;;;3.83;2.42;;;19.20;99.90;;;;;;5017252;28;20045;-76
2022/08/05 01:43:30;;;;;;;5.30;2.75;;;19.10;99.90;;;;;;5018215;28;20048;-76
2022/08/05 01:45:57;;;;;;;4.63;2.30;;;19.10;99.90;;;;;;5032339;28;20045;-76
2022/08/05 01:48:25;;;;;;;4.45;2.47;;;19.10;99.90;;;;;;5034307;28;20037;-76
2022/08/05 01:50:54;;;;;;;4.65;2.50;;;19.10;99.90;;;;;;5023809;28;20049;-76
2022/08/05 01:53:21;;;;;;;7.68;2.63;;;19.10;99.90;;;;;;5029514;28;20462;-76
2022/08/05 01:55:49;;;;;;;7.03;2.70;;;19.10;99.90;;;;;;5009852;28;20049;-76
2022/08/05 01:58:15;;;;;;;4.25;2.17;;;19.10;99.90;;;;;;5031950;28;20041;-76
2022/08/05 02:00:47;;;;;;;5.90;2.70;;;19.10;99.90;;;;;;5016905;28;20464;-76
2022/08/05 02:03:31;;;;;;;6.15;2.72;;;19.10;99.90;;;;;;5049178;28;20486;-76
2022/08/05 02:05:58;;;;;;;6.63;3.13;;;19.10;99.90;;;;;;5026215;28;20456;-76
2022/08/05 02:08:23;;;;;;;6.28;2.97;;;19.10;99.90;;;;;;5009214;28;20080;-76
2022/08/05 02:10:55;;;;;;;5.45;2.65;;;19.00;99.90;;;;;;5016939;28;20080;-76
2022/08/05 02:13:36;;;;;;;6.57;2.40;;;19.00;99.90;;;;;;5033595;28;20099;-76
2022/08/05 02:16:11;;;;;;;6.40;3.13;;;19.00;99.90;;;;;;5030989;28;20112;-76
2022/08/05 02:18:43;;;;;;;8.32;2.50;;;18.90;99.90;;;;;;5033048;28;20090;-76
2022/08/05 02:21:12;;;;;;;6.15;3.13;;;18.80;99.90;;;;;;5038194;28;20045;-76
2022/08/05 02:23:41;;;;;;;5.70;2.58;;;18.80;99.90;;;;;;5027070;28;20042;-76
2022/08/05 02:26:10;;;;;;;8.15;2.60;;;18.80;99.90;;;;;;5028678;28;20064;-76
2022/08/05 02:28:41;;;;;;;6.18;2.70;;;18.70;99.90;;;;;;5014722;28;20076;-76
2022/08/05 02:31:28;;;;;;;3.33;2.35;;;18.70;99.90;;;;;;5013115;28;20045;-77
2022/08/05 02:34:00;;;;;;;6.47;2.92;;;18.70;99.90;;;;;;5030893;28;20053;-77
2022/08/05 02:36:27;;;;;;;5.28;2.55;;;18.70;99.90;;;;;;5033098;28;20052;-76
2022/08/05 02:38:55;;;;;;;5.95;3.35;;;18.70;99.90;;;;;;5031824;28;20478;-76
2022/08/05 02:41:24;;;;;;;6.80;2.55;;;18.80;99.90;;;;;;5026307;28;20096;-76
2022/08/05 02:43:51;;;;;;;5.95;2.92;;;18.70;99.90;;;;;;5045212;28;20046;-76
2022/08/05 02:46:19;;;;;;;8.18;3.25;;;18.80;99.90;;;;;;5010831;28;20038;-77
2022/08/05 02:48:46;;;;;;;4.53;2.20;;;18.70;99.90;;;;;;5027553;28;20038;-76
2022/08/05 02:51:14;;;;;;;4.72;2.60;;;18.70;99.90;;;;;;5026206;28;20121;-76
2022/08/05 02:53:41;;;;;;;7.75;2.47;;;18.70;99.90;;;;;;5029479;28;20136;-76
2022/08/05 02:56:12;;;;;;;7.55;2.85;;;18.70;99.90;;;;;;5030109;28;20092;-76
2022/08/05 02:58:40;;;;;;;6.20;2.53;;;18.60;99.90;;;;;;5009179;28;20037;-76
2022/08/05 03:01:08;;;;;;;6.47;2.58;;;18.60;99.90;;;;;;5018137;28;20040;-76
2022/08/05 03:03:39;;;;;;;7.97;2.70;;;18.60;99.90;;;;;;5015130;28;20684;-76
2022/08/05 03:06:06;;;;;;;6.30;2.90;;;18.50;99.90;;;;;;5027456;28;20544;-76
2022/08/05 03:08:32;;;;;;;5.72;2.80;;;18.50;99.90;;;;;;5033116;28;20066;-77
2022/08/05 03:10:58;;;;;;;3.22;2.22;;;18.50;99.90;;;;;;5015415;28;20040;-76
2022/08/05 03:13:23;;;;;;;7.95;2.65;;;18.50;99.90;;;;;;5017249;28;20449;-76
2022/08/05 03:15:49;;;;;;;6.45;2.65;;;18.50;99.90;;;;;;5013125;28;20508;-76
2022/08/05 03:18:15;;;;;;;6.60;2.65;;;18.60;99.90;;;;;;5016056;28;20052;-76
2022/08/05 03:20:40;;;;;;;8.05;2.80;;;18.60;99.90;;;;;;5024341;28;20033;-76
2022/08/05 03:23:08;;;;;;;4.32;2.53;;;18.50;99.90;;;;;;5032916;28;20049;-76
2022/08/05 03:25:34;;;;;;;6.03;2.63;;;18.50;99.90;;;;;;5032636;28;20434;-76
2022/08/05 03:28:06;;;;;;;7.18;2.70;;;18.50;99.90;;;;;;5010909;28;20509;-76
2022/08/05 03:30:32;;;;;;;4.90;2.20;;;18.50;99.90;;;;;;5025020;28;20045;-76
2022/08/05 03:33:02;;;;;;;6.35;2.70;;;18.50;99.90;;;;;;5024919;28;20082;-77
2022/08/05 03:35:29;;;;;;;4.47;2.30;;;18.50;99.90;;;;;;5029931;28;20129;-76
2022/08/05 03:37:56;;;;;;;6.50;2.60;;;18.50;99.90;;;;;;5015734;28;20252;-76
2022/08/05 03:40:22;;;;;;;4.40;2.53;;;18.40;99.90;;;;;;5015205;28;20425;-76
2022/08/05 03:42:48;;;;;;;9.75;2.65;;;18.40;99.90;;;;;;5041739;28;20128;-77
2022/08/05 03:45:14;;;;;;;5.38;2.67;;;18.40;99.90;;;;;;5029247;28;20113;-76
2022/08/05 03:47:39;;;;;;;8.10;3.08;;;18.40;99.90;;;;;;5015140;28;20034;-77
2022/08/05 03:50:05;;;;;;;9.27;4.03;;;18.50;99.90;;;;;;5030533;28;20073;-76
2022/08/05 03:52:36;;;;;;;6.60;3.15;;;18.40;99.90;;;;;;5032320;28;20037;-77
2022/08/05 03:55:09;;;;;;;5.53;2.80;;;18.40;99.90;;;;;;5029531;28;20120;-77
2022/08/05 03:57:36;;;;;;;3.90;2.58;;;18.30;99.90;;;;;;5014977;28;20095;-76
2022/08/05 04:00:09;;;;;;;4.13;2.90;;;18.30;99.90;;;;;;5042027;28;20033;-77
2022/08/05 04:02:36;;;;;;;5.53;2.78;;;18.30;99.90;;;;;;5031897;28;20034;-77
2022/08/05 04:05:04;;;;;;;8.50;2.80;;;18.30;99.90;;;;;;5015428;28;20410;-76
2022/08/05 04:07:32;;;;;;;6.38;2.90;;;18.30;99.90;;;;;;5010759;28;20394;-76
2022/08/05 04:09:59;;;;;;;7.25;3.00;;;18.30;99.90;;;;;;5019580;28;20037;-75
2022/08/05 04:12:24;;;;;;;6.50;2.78;;;18.30;99.90;;;;;;5027215;28;20073;-76
2022/08/05 04:14:50;;;;;;;7.95;3.08;;;18.20;99.90;;;;;;5023913;28;20050;-76
2022/08/05 04:17:16;;;;;;;5.28;2.50;;;18.30;99.90;;;;;;5011348;28;20115;-76
2022/08/05 04:19:47;;;;;;;7.68;3.00;;;18.30;99.90;;;;;;5030724;28;20038;-76
2022/08/05 04:22:13;;;;;;;7.32;2.90;;;18.30;99.90;;;;;;5030515;28;20049;-77
2022/08/05 04:24:48;;;;;;;4.80;2.90;;;18.30;99.90;;;;;;5026864;28;20045;-76
2022/08/05 04:27:14;;;;;;;4.38;2.97;;;18.30;99.90;;;;;;5024207;28;20044;-76
2022/08/05 04:29:40;;;;;;;8.88;3.10;;;18.30;99.90;;;;;;5027373;28;20037;-76
2022/08/05 04:32:07;;;;;;;3.78;2.72;;;18.30;99.90;;;;;;5028740;28;20139;-76
2022/08/05 04:34:33;;;;;;;5.05;2.50;;;18.30;99.90;;;;;;5029722;28;20045;-77
2022/08/05 04:36:59;;;;;;;5.55;2.92;;;18.30;99.90;;;;;;5010258;28;20037;-76
2022/08/05 04:39:24;;;;;;;4.30;2.80;;;18.20;99.90;;;;;;5019603;28;20064;-76
2022/08/05 04:41:51;;;;;;;5.65;2.83;;;18.30;99.90;;;;;;5010241;28;20072;-76
2022/08/05 04:44:17;;;;;;;5.68;2.78;;;18.30;99.90;;;;;;5003169;28;20049;-76
2022/08/05 04:46:43;;;;;;;6.65;3.00;;;18.30;99.90;;;;;;5028885;28;20045;-76
2022/08/05 04:49:09;;;;;;;7.43;3.08;;;18.30;99.90;;;;;;5017557;28;20393;-76
2022/08/05 04:51:34;;;;;;;5.18;3.17;;;18.20;99.90;;;;;;5010084;28;20051;-76
2022/08/05 04:54:00;;;;;;;5.47;2.90;;;18.20;99.90;;;;;;5039271;28;20052;-76
2022/08/05 04:56:26;;;;;;;7.25;3.15;;;18.20;99.90;;;;;;5023164;28;20052;-76
2022/08/05 04:58:52;;;;;;;5.88;3.42;;;18.20;99.90;;;;;;5024724;28;20405;-76
2022/08/05 05:01:17;;;;;;;6.05;3.08;;;18.20;99.90;;;;;;5008301;28;20033;-76
2022/08/05 05:03:43;;;;;;;4.72;3.03;;;18.20;99.90;;;;;;5022879;28;20100;-76
2022/08/05 05:06:10;;;;;;;7.22;3.00;;;18.20;99.90;;;;;;5006201;28;20117;-76
2022/08/05 05:08:36;;;;;;;6.13;3.00;;;18.20;99.90;;;;;;5024835;28;20183;-76
2022/08/05 05:11:02;;;;;;;8.73;3.00;;;18.20;99.90;;;;;;5015010;28;20042;-75
2022/08/05 05:13:27;;;;;;;6.45;3.00;;;18.10;99.90;;;;;;5014583;28;20056;-76
2022/08/05 05:15:53;;;;;;;7.60;3.53;;;18.10;99.90;;;;;;5002897;28;20048;-77
2022/08/05 05:18:19;;;;;;;5.70;3.25;;;18.10;99.90;;;;;;5029183;28;20099;-77
2022/08/05 05:20:46;;;;;;;8.18;2.88;;;18.10;99.90;;;;;;5037151;28;20049;-77
2022/08/05 05:23:12;;;;;;;4.60;2.58;;;18.00;99.90;;;;;;5023879;28;20069;-76
2022/08/05 05:25:42;;;;;;;5.88;3.13;;;18.00;99.90;;;;;;5021865;28;20048;-76
2022/08/05 05:28:09;;;;;;;7.40;3.20;;;18.00;99.90;;;;;;5001754;28;20477;-76
2022/08/05 05:30:36;;;;;;;7.15;3.22;;;18.00;99.90;;;;;;5046023;28;20073;-76
2022/08/05 05:33:04;;;;;;;6.22;3.15;;;17.90;99.90;;;;;;5009875;28;20037;-76
2022/08/05 05:35:31;;;;;;;6.00;3.13;;;18.00;99.90;;;;;;5009580;28;20041;-76
2022/08/05 05:37:59;;;;;;;6.22;3.03;;;18.00;99.90;;;;;;5028868;28;20107;-77
2022/08/05 05:40:26;;;;;;;10.13;3.95;;;17.90;99.90;;;;;;4995234;28;20410;-76
2022/08/05 05:42:52;;;;;;;5.07;3.30;;;17.90;99.90;;;;;;5030606;28;20053;-76
2022/08/05 05:45:18;;;;;;;5.93;3.50;;;17.80;99.90;;;;;;5017518;28;20057;-76
2022/08/05 05:47:45;;;;;;;7.22;3.33;;;17.80;99.90;;;;;;5028443;28;20037;-76
2022/08/05 05:50:16;;;;;;;6.82;3.33;;;17.80;99.90;;;;;;5012566;28;20405;-76
2022/08/05 05:52:42;;;;;;;6.22;3.33;;;17.80;99.90;;;;;;5031469;28;20056;-77
2022/08/05 05:55:11;;;;;;;5.53;3.35;;;17.80;99.90;;;;;;5017834;28;20148;-76
2022/08/05 05:57:38;;;;;;;5.57;3.17;;;17.80;99.90;;;;;;5032555;28;20108;-76
2022/08/05 06:00:05;;;;;;;5.50;2.75;;;17.80;99.90;;;;;;5029164;28;20046;-76
2022/08/05 06:02:31;;;;;;;5.70;2.83;;;17.80;99.90;;;;;;5029218;28;20034;-77
2022/08/05 06:04:57;;;;;;;8.65;2.90;;;17.90;99.90;;;;;;5011347;28;20038;-76
2022/08/05 06:07:22;;;;;;;5.97;2.70;;;18.00;99.90;;;;;;5012846;28;20088;-77
2022/08/05 06:09:48;;;;;;;6.00;3.03;;;18.00;99.90;;;;;;5026898;28;20045;-77
2022/08/05 06:12:14;;;;;;;4.15;2.70;;;18.10;99.90;;;;;;5016944;28;20037;-77
2022/08/05 06:14:43;;;;;;;12.07;3.20;;;18.10;99.90;;;;;;4996027;28;20034;-76
2022/08/05 06:17:09;;;;;;;7.38;2.72;;;18.10;99.90;;;;;;5013165;28;20508;-76
2022/08/05 06:19:35;;;;;;;7.45;2.90;;;18.10;99.90;;;;;;5010759;28;20049;-76
2022/08/05 06:22:04;;;;;;;4.78;2.80;;;18.20;99.90;;;;;;5017253;28;20033;-75
2022/08/05 06:24:31;;;;;;;6.07;2.85;;;18.20;99.90;;;;;;5000034;28;20061;-77
2022/08/05 06:26:57;;;;;;;6.00;2.72;;;18.20;99.90;;;;;;5014871;28;20046;-76
2022/08/05 06:29:23;;;;;;;6.53;2.85;;;18.30;99.90;;;;;;4998144;28;20456;-76
2022/08/05 06:31:49;;;;;;;5.70;3.13;;;18.30;99.90;;;;;;5040765;28;20045;-76
2022/08/05 06:34:15;;;;;;;8.30;2.90;;;18.40;99.90;;;;;;5028546;28;20038;-77
2022/08/05 06:36:40;;;;;;;7.15;2.40;;;18.40;99.90;;;;;;5028033;28;20033;-77
2022/08/05 06:39:06;;;;;;;7.25;2.50;;;18.50;99.90;;;;;;5029092;28;20061;-75
2022/08/05 06:41:32;;;;;;;4.85;2.85;;;18.60;99.90;;;;;;5030922;28;20041;-76
2022/08/05 06:43:57;;;;;;;9.32;2.83;;;18.70;99.90;;;;;;5032615;28;20045;-76
2022/08/05 06:46:23;;;;;;;4.05;2.47;;;18.80;99.90;;;;;;5003674;28;20440;-76
2022/08/05 06:48:49;;;;;;;6.15;2.17;;;19.00;99.90;;;;;;5029966;28;20095;-76
2022/08/05 06:51:15;;;;;;;5.18;2.00;;;19.30;99.90;;;;;;5033677;28;20274;-76
2022/08/05 06:53:41;;;;;;;5.45;2.00;;;19.70;99.90;;;;;;5029719;28;20034;-77
2022/08/05 06:56:06;;;;;;;3.72;2.05;;;20.10;99.90;;;;;;5014173;28;20084;-76
2022/08/05 06:58:32;;;;;;;5.70;1.90;;;20.30;99.90;;;;;;5001442;28;20144;-77
2022/08/05 07:00:59;;;;;;;4.88;2.22;;;20.60;99.90;;;;;;5018562;28;20044;-77
2022/08/05 07:03:26;;;;;;;5.45;1.58;;;21.00;99.90;;;;;;5032815;28;20034;-76
2022/08/05 07:05:52;;;;;;;4.28;1.95;;;21.10;99.90;;;;;;5020622;28;20041;-77
2022/08/05 07:08:17;;;;;;;3.35;1.60;;;21.10;99.90;;;;;;5028991;28;20037;-77
2022/08/05 07:10:43;;;;;;;4.22;1.50;;;21.10;99.90;;;;;;5028971;28;20053;-76
2022/08/05 07:18:37;;;;;;;6.32;1.20;;;21.10;99.90;;;;;;5043036;28;20033;-77
2022/08/05 07:21:04;;;;;;;2.60;1.63;;;21.00;99.90;;;;;;5034523;28;20459;-77
2022/08/05 07:23:30;;;;;;;3.90;1.40;;;20.90;99.90;;;;;;5015310;28;20030;-77
2022/08/05 07:25:55;;;;;;;5.72;1.80;;;20.70;99.90;;;;;;5032157;28;20707;-76
2022/08/05 07:28:21;;;;;;;4.05;1.30;;;20.50;99.90;;;;;;5028630;28;20447;-77
2022/08/05 07:30:47;;;;;;;5.05;1.42;;;20.50;99.90;;;;;;5023252;28;20099;-76
2022/08/05 07:33:12;;;;;;;2.50;1.20;;;20.40;99.90;;;;;;5016203;28;20053;-77
2022/08/05 07:35:38;;;;;;;4.03;1.23;;;20.20;99.90;;;;;;5030902;28;20077;-77
2022/08/05 07:38:04;;;;;;;4.07;1.45;;;20.10;99.90;;;;;;5029008;28;20064;-77
2022/08/05 07:40:30;;;;;;;5.40;1.90;;;20.10;99.90;;;;;;5015065;28;20053;-77
2022/08/05 07:42:56;;;;;;;3.45;1.40;;;20.10;99.90;;;;;;5028999;28;20045;-77
2022/08/05 07:45:22;;;;;;;5.47;1.60;;;20.10;99.90;;;;;;5019033;28;20038;-77
2022/08/05 07:47:48;;;;;;;2.10;1.20;;;20.00;99.90;;;;;;5029794;28;20041;-77
2022/08/05 07:50:14;;;;;;;2.97;1.45;;;20.20;99.90;;;;;;5025426;28;20042;-76
2022/08/05 07:52:42;;;;;;;4.13;1.25;;;20.20;99.90;;;;;;5023208;28;20045;-77
2022/08/05 07:55:08;;;;;;;4.70;1.83;;;20.30;99.90;;;;;;4996172;28;20069;-76
2022/08/05 07:57:34;;;;;;;2.17;1.02;;;20.60;99.90;;;;;;5015783;28;20045;-77
2022/08/05 08:00:00;;;;;;;3.72;1.30;;;20.90;99.90;;;;;;4998892;28;20505;-76
2022/08/05 08:02:26;;;;;;;5.35;1.50;;;21.20;99.90;;;;;;5013902;28;20191;-76
2022/08/05 08:04:52;;;;;;;7.38;1.33;;;21.50;99.90;;;;;;5030120;28;20050;-76
2022/08/05 08:07:19;;;;;;;6.82;1.50;;;21.50;99.90;;;;;;5023614;28;20117;-76
2022/08/05 08:09:45;;;;;;;2.08;1.17;;;21.50;99.90;;;;;;5007957;28;20170;-76
2022/08/05 08:12:14;;;;;;;3.80;1.60;;;21.50;99.90;;;;;;5030804;28;20034;-76
2022/08/05 08:14:41;;;;;;;5.05;1.85;;;21.70;99.90;;;;;;5011753;28;20537;-77
2022/08/05 08:17:10;;;;;;;4.32;1.50;;;21.70;99.90;;;;;;5031624;28;20041;-77
2022/08/05 08:19:39;;;;;;;5.55;1.30;;;21.80;99.90;;;;;;5029513;28;20033;-77
2022/08/05 08:22:06;;;;;;;2.90;1.35;;;21.80;99.90;;;;;;4994409;28;20041;-77
2022/08/05 08:24:32;;;;;;;4.25;1.33;;;22.10;99.90;;;;;;5027996;28;20548;-76
2022/08/05 08:26:58;;;;;;;7.22;1.40;;;22.30;99.90;;;;;;5008748;28;20042;-77
2022/08/05 08:29:24;;;;;;;4.03;1.00;;;22.20;99.90;;;;;;5020227;28;20512;-77
2022/08/05 08:31:50;;;;;;;3.83;1.17;;;22.10;99.90;;;;;;5025263;28;20063;-77
2022/08/05 08:34:22;;;;;;;7.63;1.20;;;21.80;99.90;;;;;;5027480;28;20045;-76
2022/08/05 08:36:47;;;;;;;4.40;1.00;;;21.80;99.90;;;;;;5010269;28;20067;-77
2022/08/05 08:39:16;;;;;;;3.25;1.00;;;21.80;99.90;;;;;;5019924;28;20545;-77
2022/08/05 08:41:46;;;;;;;3.13;1.08;;;21.90;99.90;;;;;;5015612;28;20111;-76
2022/08/05 08:44:17;;;;;;;5.10;1.20;;;21.90;99.90;;;;;;5031048;28;20402;-76
2022/08/05 08:46:45;;;;;;;6.38;1.33;;;21.80;99.90;;;;;;5030322;28;20084;-76
2022/08/05 08:49:14;;;;;;;2.80;1.08;;;21.90;99.90;;;;;;5011712;28;20091;-76
2022/08/05 08:51:41;;;;;;;1.70;1.00;;;22.00;99.90;;;;;;5024677;28;20038;-77
2022/08/05 08:54:09;;;;;;;2.95;1.10;;;22.00;99.90;;;;;;5022217;28;20080;-77
2022/08/05 08:56:38;;;;;;;2.67;0.90;;;22.00;99.90;;;;;;5026173;28;20107;-77
2022/08/05 08:59:03;;;;;;;2.05;0.98;;;22.00;99.90;;;;;;5012930;28;20498;-77
2022/08/05 09:01:30;;;;;;;2.50;0.85;;;22.20;99.90;;;;;;4991252;28;20080;-77
2022/08/05 09:03:58;;;;;;;1.95;0.85;;;22.40;99.90;;;;;;5009650;28;20068;-76
2022/08/05 09:06:29;;;;;;;2.45;0.93;;;22.40;99.90;;;;;;5024823;28;20038;-77
2022/08/05 09:08:54;;;;;;;6.20;1.33;;;22.40;99.90;;;;;;5029931;28;20069;-77
2022/08/05 09:11:20;;;;;;;2.38;0.90;;;22.30;99.90;;;;;;5030184;28;20449;-77
2022/08/05 09:13:46;;;;;;;2.03;0.80;;;22.30;99.90;;;;;;5030220;28;20053;-77
2022/08/05 09:16:12;;;;;;;2.53;0.85;;;22.30;99.90;;;;;;5018070;28;20037;-76
2022/08/05 09:18:38;;;;;;;1.92;0.75;;;22.40;99.40;;;;;;5013100;28;20393;-77
2022/08/05 09:21:04;;;;;;;1.95;0.80;;;22.50;98.20;;;;;;5026291;28;20434;-77
2022/08/05 09:23:30;;;;;;;2.03;0.63;;;22.60;97.80;;;;;;5030514;28;20120;-76
2022/08/05 09:26:11;;;;;;;2.42;0.70;;;22.70;97.70;;;;;;5021972;28;20060;-77
2022/08/05 09:28:39;;;;;;;3.33;0.60;;;22.80;96.50;;;;;;5037801;28;20041;-77
2022/08/05 09:31:05;;;;;;;4.30;0.77;;;22.80;95.90;;;;;;5017619;28;20052;-77
2022/08/05 09:33:31;;;;;;;3.53;0.77;;;22.80;95.30;;;;;;5025446;28;20042;-77
2022/08/05 09:35:59;;;;;;;3.63;0.90;;;22.80;95.20;;;;;;5033891;28;20080;-77
2022/08/05 09:38:25;;;;;;;3.40;0.70;;;22.90;95.40;;;;;;5016809;28;20042;-77
2022/08/05 09:40:53;;;;;;;2.95;0.80;;;23.00;95.30;;;;;;5027471;28;20054;-76
2022/08/05 09:43:36;;;;;;;5.63;1.38;;;22.80;94.70;;;;;;5033841;28;20087;-76
2022/08/05 09:46:05;;;;;;;7.47;0.70;;;22.70;92.00;;;;;;5016838;28;20505;-77
2022/08/05 09:48:33;;;;;;;2.45;0.65;;;22.50;92.60;;;;;;5016706;28;20034;-77
2022/08/05 09:51:01;;;;;;;2.83;0.70;;;22.40;92.80;;;;;;5033409;28;20125;-77
2022/08/05 09:53:27;;;;;;;3.58;0.75;;;22.30;92.60;;;;;;5030623;28;20041;-77
2022/08/05 09:55:56;;;;;;;1.15;0.50;;;22.30;92.00;;;;;;5026118;28;20037;-77
2022/08/05 09:58:22;;;;;;;1.80;0.73;;;22.30;92.10;;;;;;5033418;28;20041;-77
2022/08/05 10:01:04;;;;;;;5.80;1.10;;;22.30;92.00;;;;;;5023463;28;20050;-77
2022/08/05 10:03:30;;;;;;;4.65;0.85;;;22.30;92.70;;;;;;5026945;28;20041;-77
2022/08/05 10:06:05;;;;;;;5.55;0.80;;;22.30;93.00;;;;;;5014904;28;20084;-77
2022/08/05 10:08:31;;;;;;;6.20;1.00;;;22.30;92.70;;;;;;5029415;28;20106;-76
2022/08/05 10:10:57;;;;;;;6.38;0.85;;;22.30;92.10;;;;;;5032744;28;20624;-76
2022/08/05 10:13:37;;;;;;;2.55;0.80;;;22.20;91.60;;;;;;5027536;28;20489;-76
2022/08/05 10:16:25;;;;;;;3.10;0.55;;;22.10;90.80;;;;;;5023267;28;20403;-78
2022/08/05 10:18:52;;;;;;;1.38;0.52;;;22.10;90.20;;;;;;5011292;28;20112;-77
2022/08/05 10:21:18;;;;;;;2.40;0.55;;;22.10;89.60;;;;;;5015846;28;20100;-78
2022/08/05 10:23:44;;;;;;;1.67;0.40;;;22.10;85.60;;;;;;5029984;28;20067;-78
2022/08/05 10:26:11;;;;;;;5.32;0.95;;;22.00;83.20;;;;;;5008014;28;20048;-78
2022/08/05 10:28:37;;;;;;;1.70;0.60;;;21.90;83.00;;;;;;5007613;28;20117;-78
2022/08/05 10:31:04;;;;;;;3.05;0.50;;;21.90;82.50;;;;;;5028911;28;20069;-78
2022/08/05 10:33:32;;;;;;;1.88;0.45;;;21.90;80.80;;;;;;5033082;28;20076;-79
2022/08/05 10:35:59;;;;;;;2.47;0.50;;;21.80;81.50;;;;;;5033967;28;20042;-79
2022/08/05 10:38:28;;;;;;;4.38;0.65;;;21.70;82.30;;;;;;5012321;28;20041;-77
2022/08/05 10:41:16;;;;;;;1.08;0.40;;;21.70;82.20;;;;;;5030229;28;20052;-78
2022/08/05 10:43:51;;;;;;;3.55;0.63;;;21.70;80.30;;;;;;5032011;28;21289;-79
2022/08/05 10:46:18;;;;;;;1.35;0.40;;;21.70;78.10;;;;;;5032271;28;20044;-76
2022/08/05 10:48:45;;;;;;;3.08;0.70;;;21.70;78.80;;;;;;5014738;28;20037;-77
2022/08/05 10:51:13;;;;;;;0.85;0.30;;;21.70;77.50;;;;;;5026022;28;20049;-76
2022/08/05 10:53:42;;;;;;;0.50;0.20;;;21.70;77.30;;;;;;5044743;28;20040;-77
2022/08/05 10:56:14;;;;;;;1.45;0.30;;;21.80;77.00;;;;;;5015555;28;20071;-77
2022/08/05 10:59:03;;;;;;;3.55;0.38;;;21.80;75.90;;;;;;5013563;28;20179;-77
2022/08/05 11:01:36;;;;;;;0.80;0.38;;;21.90;75.20;;;;;;5011984;28;20038;-77
2022/08/05 11:04:16;;;;;;;2.13;0.50;;;22.00;73.20;;;;;;5027041;28;20041;-77
2022/08/05 11:06:59;;;;;;;1.20;0.38;;;22.00;73.00;;;;;;5030297;28;20037;-77
2022/08/05 11:09:25;;;;;;;1.85;0.57;;;22.10;73.40;;;;;;5033986;28;20033;-76
2022/08/05 11:11:53;;;;;;;4.50;0.60;;;22.20;73.70;;;;;;5040799;28;20094;-77
2022/08/05 11:14:27;;;;;;;2.00;0.40;;;22.20;72.80;;;;;;5021841;28;20061;-77
2022/08/05 11:17:18;;;;;;;2.28;0.50;;;22.30;71.90;;;;;;5022846;28;20085;-77
2022/08/05 11:19:45;;;;;;;1.88;0.60;;;22.30;71.70;;;;;;5019144;28;20049;-78
2022/08/05 11:22:47;;;;;;;2.25;0.70;;;22.30;71.30;;;;;;5026045;28;20047;-78
2022/08/05 11:25:32;;;;;;;5.00;0.70;;;22.40;72.10;;;;;;5031060;28;20052;-78
2022/08/05 11:28:10;;;;;;;3.30;0.80;;;22.40;72.40;;;;;;5041998;28;20060;-78
2022/08/05 11:30:57;;;;;;;12.15;1.20;;;22.30;72.90;;;;;;5030601;28;20357;-78
2022/08/05 11:33:55;;;;;;;5.90;0.70;;;22.40;74.40;;;;;;5040703;28;20494;-78
2022/08/05 11:36:39;;;;;;;2.22;0.50;;;22.50;71.20;;;;;;5026305;28;20061;-77
2022/08/05 11:39:05;;;;;;;1.20;0.40;;;22.60;68.30;;;;;;5023159;28;20069;-78
2022/08/05 11:41:36;;;;;;;1.60;0.50;;;22.50;70.70;;;;;;4994141;28;20054;-78
2022/08/05 11:44:11;;;;;;;6.82;0.82;;;22.50;70.30;;;;;;5009053;28;20038;-77
2022/08/05 11:46:50;;;;;;;5.88;0.60;;;22.50;72.40;;;;;;5029267;28;20044;-77
2022/08/05 11:49:19;;;;;;;1.52;0.40;;;22.50;73.60;;;;;;5026383;28;20049;-77
2022/08/05 11:51:46;;;;;;;0.95;0.68;;;22.50;73.00;;;;;;5028558;28;20478;-77
2022/08/05 11:54:14;;;;;;;2.22;0.57;;;22.50;74.30;;;;;;5010086;28;20116;-78
2022/08/05 11:56:44;;;;;;;2.50;0.40;;;22.60;74.10;;;;;;5022735;28;20052;-77
2022/08/05 11:59:21;;;;;;;0.75;0.40;;;22.70;73.10;;;;;;5015717;28;20497;-77
2022/08/05 12:02:01;;;;;;;3.58;0.50;;;22.70;73.60;;;;;;5012868;28;20045;-77
2022/08/05 12:04:44;;;;;;;1.10;0.50;;;22.70;74.40;;;;;;5014726;28;20125;-77
2022/08/05 12:07:12;;;;;;;0.47;0.38;;;22.70;74.90;;;;;;5015172;28;20044;-77
2022/08/05 12:09:46;;;;;;;1.20;0.20;;;22.60;73.60;;;;;;5025011;28;20038;-76
2022/08/05 12:12:11;;;;;;;1.40;0.40;;;22.60;72.80;;;;;;5012654;28;20351;-77
2022/08/05 12:14:40;;;;;;;2.10;0.60;;;22.60;72.00;;;;;;5012239;28;20029;-77
2022/08/05 12:17:07;;;;;;;3.38;0.50;;;22.60;73.30;;;;;;5028360;28;22170;-77
2022/08/05 12:19:47;;;;;;;1.15;0.50;;;22.60;74.40;;;;;;5008482;28;20484;-77
2022/08/05 12:22:15;;;;;;;2.35;0.60;;;22.40;74.90;;;;;;5036071;28;20077;-76
2022/08/05 12:24:48;;;;;;;4.10;0.70;;;22.40;75.00;;;;;;5013090;28;20037;-77
2022/08/05 12:27:24;;;;;;;1.20;0.52;;;22.40;74.10;;;;;;5036017;28;20508;-77
2022/08/05 12:30:06;;;;;;;3.85;0.50;;;22.40;75.30;;;;;;5015366;28;20502;-77
2022/08/05 12:32:44;;;;;;;1.83;0.50;;;22.30;75.80;;;;;;5031997;28;20073;-77
2022/08/05 12:35:10;;;;;;;4.30;0.70;;;22.30;75.50;;;;;;5037356;28;20041;-77
2022/08/05 12:37:37;;;;;;;2.83;0.60;;;22.30;76.90;;;;;;5014564;28;20116;-77
2022/08/05 12:40:08;;;;;;;3.78;0.63;;;22.30;77.00;;;;;;5031216;28;20058;-77
2022/08/05 12:42:35;;;;;;;2.42;0.60;;;22.20;77.80;;;;;;5043975;28;20040;-77
2022/08/05 12:45:10;;;;;;;2.90;0.60;;;22.20;78.00;;;;;;5013750;28;20474;-78
2022/08/05 12:47:36;;;;;;;2.58;0.80;;;22.20;77.90;;;;;;5026437;28;20037;-75
2022/08/05 12:50:13;;;;;;;2.80;0.60;;;22.10;77.50;;;;;;5029436;28;20471;-76
2022/08/05 12:52:39;;;;;;;4.95;0.60;;;22.30;77.60;;;;;;5014233;28;20037;-76
2022/08/05 12:55:26;;;;;;;1.13;0.50;;;22.40;77.50;;;;;;5007514;28;20393;-76
2022/08/05 12:57:53;;;;;;;4.07;0.90;;;22.30;78.70;;;;;;5019011;28;20429;-76
2022/08/05 13:00:25;;;;;;;9.02;0.98;;;22.40;79.60;;;;;;5005844;28;20043;-76